首页
METAR-TAF:

METAR-TAF

机场 :

汶萊國際機場

文莱, 文莱

纬度: 04-56N, 经度: 114-56E, 海拔: 22米

当前天气观测

该预报发布于13分钟前的17:00 UTC
风速4节,风向东转东北
温度 28°C
湿度 89%
气压 1010 hPa
能见度10公里或以上
少量云层高于1500英尺
散云层高于14000英尺
多云层高于30000英尺

METAR: WBSB 121700Z 06004KT 9999 FEW015 SCT140 BKN300 28/26 Q1010 RESHRA NOSIG

时间: 01:13 (17:13 UTC)

预报

该预报发布于6小时和28分钟前的10:45 UTC
预报有效从12日的 12点(UTC)到 13日的 18点(UTC)
风速3节,风向北转东北
能见度10公里或以上
散云层高于1400英尺
少量云层高于1500英尺, 积雨云.
多云层高于14000英尺
短暂存在
从 12日的 13点(UTC)到 12日的 17点(UTC)
能見度: 5000
雷暴, 小雨
成为
从 13日的 03点(UTC)到 13日的 05点(UTC)
风速10节,风向
少量云层高于1700英尺
少量云层高于1800英尺, 积雨云.

TAF: WBSB 121045Z 1212/1318 03003KT 9999 SCT014 FEW015CB BKN140 TEMPO 1213/1217 5000 -TSRA BECMG 1303/1305 35010KT FEW017 FEW018CB

超过4000个机场的气象观测和天气预报(METAR&TAF报告)。

可查询的气象台以黄色和红色小点在地图上表示。

将鼠标移到小点上方,可查看气象台名称。

然后点击查看天气观测和预报。

如需切换地图:点击带黑十字的绿色按钮放大地图;点击带横线的绿色按钮缩小地图;或者点击绿色箭头查看邻近地区的地图。


METAR-TAF: